Terminal Aerodrome Forecast
Issued by NWS Jackson, KY

Home | Current Version | Previous Version | Text Only | Print | Product List | Glossary On
Versions: 1 2 3 4 5 6 7 8 9 10 11 12 13 14 15 16 17
000
FTUS43 KJKL 251128
TAFLOZ
TAF
KLOZ 251128Z 2512/2612 24009KT P6SM SCT040 BKN250
     FM260200 VRB06KT 3SM -SN OVC015
     FM260400 VRB06KT 1SM -SN OVC003=

USA.gov is the U.S. government's official web portal to all federal, state and local government web resources and services.